Time;durP1;ratioP1;P1;durP2;ratioP2;P2;SDS_P1;SDS_P2;PMS_P1;PMS_P2;Temp;Humidity;BMP_temperature;BMP_pressure;BME280_temperature;BME280_humidity;BME280_pressure;Samples;Min_cycle;Max_cycle;Signal;HPM_P1;HPM_P2
2022/05/19 00:01:23;;;;;;;5.20;3.97;;;;;;;;;;5026496;28;20825;-86
2022/05/19 00:03:49;;;;;;;3.70;2.97;;;;;;;;;;5026596;28;20411;-86
2022/05/19 00:06:16;;;;;;;7.80;5.13;;;;;;;;;;5027099;28;20407;-87
2022/05/19 00:08:42;;;;;;;5.23;3.23;;;;;;;;;;5026930;28;20452;-87
2022/05/19 00:11:10;;;;;;;5.27;3.17;;;;;;;;;;5026661;28;20450;-87
2022/05/19 00:13:36;;;;;;;7.90;3.10;;;;;;;;;;5026987;28;20435;-87
2022/05/19 00:16:02;;;;;;;4.77;3.50;;;;;;;;;;5026928;28;20403;-87
2022/05/19 00:18:28;;;;;;;4.37;3.03;;;;;;;;;;5034168;28;20473;-88
2022/05/19 00:20:54;;;;;;;3.93;3.43;;;;;;;;;;5038625;28;20396;-87
2022/05/19 00:23:20;;;;;;;6.93;3.37;;;;;;;;;;5026203;28;20947;-86
2022/05/19 00:25:47;;;;;;;13.10;3.37;;;;;;;;;;5026268;28;20412;-87
2022/05/19 00:28:13;;;;;;;5.07;3.67;;;;;;;;;;5027012;28;20431;-87
2022/05/19 00:30:40;;;;;;;5.60;3.77;;;;;;;;;;5024891;28;20479;-87
2022/05/19 00:33:08;;;;;;;3.90;3.43;;;;;;;;;;5026903;28;20403;-86
2022/05/19 00:35:34;;;;;;;5.67;3.67;;;;;;;;;;5027556;28;20399;-86
2022/05/19 00:38:00;;;;;;;4.27;3.13;;;;;;;;;;5027391;28;20427;-86
2022/05/19 00:40:27;;;;;;;4.40;3.27;;;;;;;;;;5026567;28;20840;-87
2022/05/19 00:42:53;;;;;;;8.87;3.80;;;;;;;;;;5026607;28;20492;-86
2022/05/19 00:45:21;;;;;;;7.87;3.60;;;;;;;;;;5031786;28;20923;-84
2022/05/19 00:48:06;;;;;;;4.03;3.10;;;;;;;;;;5034202;28;20428;-87
2022/05/19 00:50:36;;;;;;;4.23;3.60;;;;;;;;;;5027819;28;20404;-86
2022/05/19 00:53:05;;;;;;;4.90;3.27;;;;;;;;;;5026959;28;20776;-87
2022/05/19 00:55:34;;;;;;;4.53;3.40;;;;;;;;;;5026828;28;20399;-88
2022/05/19 00:58:16;;;;;;;5.50;3.77;;;;;;;;;;5026101;28;20936;-88
2022/05/19 01:00:43;;;;;;;4.93;3.83;;;;;;;;;;5026097;28;20447;-87
2022/05/19 01:03:10;;;;;;;8.63;3.43;;;;;;;;;;5025335;28;20408;-88
2022/05/19 01:05:42;;;;;;;5.70;3.33;;;;;;;;;;5027185;28;20407;-87
2022/05/19 01:08:14;;;;;;;4.77;3.77;;;;;;;;;;5025929;28;20841;-87
2022/05/19 01:10:41;;;;;;;5.73;3.90;;;;;;;;;;5026594;28;20458;-87
2022/05/19 01:13:07;;;;;;;4.43;3.80;;;;;;;;;;5030175;28;20407;-87
2022/05/19 01:15:34;;;;;;;5.43;4.43;;;;;;;;;;5029450;28;20407;-87
2022/05/19 01:18:00;;;;;;;5.90;3.47;;;;;;;;;;5029749;28;20493;-86
2022/05/19 01:20:27;;;;;;;4.83;4.33;;;;;;;;;;5030256;28;20410;-87
2022/05/19 01:22:53;;;;;;;6.77;3.53;;;;;;;;;;5029792;28;20407;-87
2022/05/19 01:25:28;;;;;;;6.43;3.90;;;;;;;;;;5029527;28;20470;-87
2022/05/19 01:27:54;;;;;;;4.57;3.70;;;;;;;;;;5029721;28;20426;-87
2022/05/19 01:30:20;;;;;;;4.73;3.43;;;;;;;;;;5020883;28;20415;-84
2022/05/19 01:32:46;;;;;;;6.20;3.80;;;;;;;;;;5018588;28;20454;-84
2022/05/19 01:35:12;;;;;;;6.27;4.00;;;;;;;;;;5018967;28;20407;-86
2022/05/19 01:37:38;;;;;;;8.80;3.83;;;;;;;;;;5022253;28;20423;-85
2022/05/19 01:40:06;;;;;;;5.30;4.80;;;;;;;;;;5024268;28;20408;-85
2022/05/19 01:42:41;;;;;;;6.13;4.17;;;;;;;;;;5025173;28;20411;-85
2022/05/19 01:45:16;;;;;;;5.30;4.03;;;;;;;;;;5028772;28;20983;-87
2022/05/19 01:47:51;;;;;;;5.53;3.53;;;;;;;;;;5041036;28;20426;-85
2022/05/19 01:50:36;;;;;;;7.93;4.30;;;;;;;;;;5045952;28;20462;-87
2022/05/19 01:53:05;;;;;;;6.57;3.20;;;;;;;;;;5046490;28;20451;-84
2022/05/19 01:55:37;;;;;;;8.63;4.30;;;;;;;;;;5047782;28;20406;-87
2022/05/19 01:58:41;;;;;;;5.93;4.23;;;;;;;;;;5047675;28;20430;-85
2022/05/19 02:01:08;;;;;;;4.60;3.80;;;;;;;;;;4967403;29;20424;-87
2022/05/19 02:03:37;;;;;;;6.13;4.10;;;;;;;;;;4967389;29;20410;-87
2022/05/19 02:06:09;;;;;;;11.43;4.60;;;;;;;;;;5008035;28;20448;-86
2022/05/19 02:08:44;;;;;;;5.63;4.53;;;;;;;;;;5051739;28;20407;-86
2022/05/19 02:11:13;;;;;;;6.73;4.00;;;;;;;;;;5051033;28;20468;-87
2022/05/19 02:13:40;;;;;;;6.27;4.10;;;;;;;;;;5048706;28;20415;-87
2022/05/19 02:16:07;;;;;;;10.23;4.10;;;;;;;;;;5049973;28;20813;-87
2022/05/19 02:18:34;;;;;;;6.87;4.60;;;;;;;;;;5049734;28;20529;-87
2022/05/19 02:21:02;;;;;;;5.07;4.50;;;;;;;;;;5048122;28;20426;-86
2022/05/19 02:23:29;;;;;;;5.83;3.80;;;;;;;;;;5049012;28;20406;-87
2022/05/19 02:25:55;;;;;;;4.27;3.80;;;;;;;;;;5049788;28;20414;-87
2022/05/19 02:28:32;;;;;;;7.67;4.67;;;;;;;;;;5050110;28;20422;-85
2022/05/19 02:30:59;;;;;;;4.20;3.53;;;;;;;;;;5055372;28;20464;-87
2022/05/19 02:33:25;;;;;;;4.90;3.87;;;;;;;;;;5052880;28;20422;-87
2022/05/19 02:35:52;;;;;;;6.57;3.63;;;;;;;;;;5049671;28;20410;-86
2022/05/19 02:38:18;;;;;;;7.17;4.00;;;;;;;;;;5050160;28;20433;-87
2022/05/19 02:40:45;;;;;;;6.47;4.23;;;;;;;;;;5050433;28;20411;-86
2022/05/19 02:43:12;;;;;;;7.43;4.07;;;;;;;;;;5049256;28;20405;-86
2022/05/19 02:45:38;;;;;;;3.73;3.30;;;;;;;;;;5048491;28;20406;-87
2022/05/19 02:48:05;;;;;;;9.33;4.00;;;;;;;;;;5047083;28;20445;-87
2022/05/19 02:50:31;;;;;;;4.73;3.77;;;;;;;;;;5048630;28;20469;-87
2022/05/19 02:52:57;;;;;;;8.30;4.33;;;;;;;;;;5048356;28;20409;-87
2022/05/19 02:55:23;;;;;;;5.17;4.20;;;;;;;;;;5048302;28;20407;-86
2022/05/19 02:57:50;;;;;;;5.20;4.13;;;;;;;;;;5048393;28;20445;-87
2022/05/19 03:00:18;;;;;;;7.03;5.00;;;;;;;;;;5048563;28;20402;-87
2022/05/19 03:02:44;;;;;;;4.93;3.27;;;;;;;;;;5046738;28;20425;-87
2022/05/19 03:05:11;;;;;;;5.23;4.73;;;;;;;;;;5048040;28;20570;-87
2022/05/19 03:07:37;;;;;;;5.20;4.20;;;;;;;;;;5047722;28;20454;-87
2022/05/19 03:10:04;;;;;;;6.53;4.43;;;;;;;;;;5048188;28;20410;-87
2022/05/19 03:12:30;;;;;;;5.33;4.60;;;;;;;;;;5047802;28;20468;-87
2022/05/19 03:14:56;;;;;;;5.80;4.60;;;;;;;;;;5047873;28;20410;-87
2022/05/19 03:17:22;;;;;;;5.50;4.93;;;;;;;;;;5055785;28;20465;-85
2022/05/19 03:19:52;;;;;;;7.80;4.37;;;;;;;;;;5077030;23;20481;-85
2022/05/19 03:22:18;;;;;;;5.20;3.90;;;;;;;;;;5061195;28;20425;-87
2022/05/19 03:24:44;;;;;;;4.50;4.00;;;;;;;;;;5059694;28;20524;-86
2022/05/19 03:27:10;;;;;;;5.83;5.23;;;;;;;;;;5059854;28;20766;-87
2022/05/19 03:29:36;;;;;;;5.43;4.50;;;;;;;;;;5060593;28;20508;-87
2022/05/19 03:32:03;;;;;;;6.97;5.07;;;;;;;;;;5042328;28;20457;-87
2022/05/19 03:34:29;;;;;;;8.13;4.57;;;;;;;;;;5042428;28;20417;-86
2022/05/19 03:36:55;;;;;;;6.70;5.00;;;;;;;;;;5041454;28;20463;-87
2022/05/19 03:39:21;;;;;;;5.87;4.50;;;;;;;;;;5041661;28;20421;-87
2022/05/19 03:41:48;;;;;;;5.43;4.47;;;;;;;;;;5060201;28;20401;-87
2022/05/19 03:44:14;;;;;;;6.23;4.30;;;;;;;;;;5060727;28;20451;-87
2022/05/19 03:46:40;;;;;;;5.47;4.13;;;;;;;;;;5059911;28;20409;-86
2022/05/19 03:49:06;;;;;;;6.70;4.80;;;;;;;;;;5041891;28;20433;-87
2022/05/19 03:51:33;;;;;;;7.03;4.23;;;;;;;;;;5060123;28;20432;-87
2022/05/19 03:54:00;;;;;;;6.90;4.70;;;;;;;;;;5042445;28;20433;-87
2022/05/19 03:56:26;;;;;;;7.17;4.93;;;;;;;;;;5059695;28;20405;-86
2022/05/19 03:58:52;;;;;;;9.30;4.93;;;;;;;;;;5061992;28;20413;-86
2022/05/19 04:01:19;;;;;;;5.33;4.40;;;;;;;;;;5040861;28;20431;-85
2022/05/19 04:03:45;;;;;;;5.77;4.93;;;;;;;;;;5059004;28;20762;-84
2022/05/19 04:06:11;;;;;;;8.10;5.50;;;;;;;;;;5042271;28;20431;-86
2022/05/19 04:08:37;;;;;;;6.73;5.40;;;;;;;;;;5062177;28;20430;-86
2022/05/19 04:11:04;;;;;;;5.40;4.90;;;;;;;;;;5042104;28;20445;-87
2022/05/19 04:13:30;;;;;;;6.57;4.80;;;;;;;;;;5041360;28;20410;-86
2022/05/19 04:15:56;;;;;;;6.80;4.90;;;;;;;;;;5041607;28;20401;-87
2022/05/19 04:18:22;;;;;;;5.80;4.60;;;;;;;;;;5042393;28;20437;-86
2022/05/19 04:20:48;;;;;;;8.40;4.80;;;;;;;;;;5042010;28;20452;-86
2022/05/19 04:23:15;;;;;;;6.63;4.90;;;;;;;;;;5069777;28;20398;-85
2022/05/19 04:25:41;;;;;;;8.00;4.93;;;;;;;;;;5061576;28;20421;-87
2022/05/19 04:28:07;;;;;;;9.00;5.30;;;;;;;;;;5055049;28;20442;-87
2022/05/19 04:30:33;;;;;;;7.87;5.40;;;;;;;;;;5042061;28;20433;-87
2022/05/19 04:33:00;;;;;;;5.50;4.60;;;;;;;;;;5059722;28;20914;-86
2022/05/19 04:35:26;;;;;;;7.23;5.23;;;;;;;;;;5059080;28;20405;-86
2022/05/19 04:38:00;;;;;;;5.00;4.50;;;;;;;;;;5041220;28;20417;-87
2022/05/19 04:40:27;;;;;;;5.60;4.93;;;;;;;;;;5041787;28;20401;-86
2022/05/19 04:42:54;;;;;;;10.33;4.93;;;;;;;;;;5041669;28;20412;-85
2022/05/19 04:45:20;;;;;;;6.60;4.57;;;;;;;;;;5041682;28;20410;-85
2022/05/19 04:47:47;;;;;;;5.87;4.67;;;;;;;;;;5057661;28;20513;-87
2022/05/19 04:50:13;;;;;;;10.30;4.83;;;;;;;;;;5058907;28;20834;-86
2022/05/19 04:52:39;;;;;;;12.67;4.60;;;;;;;;;;5059365;28;20460;-85
2022/05/19 04:55:07;;;;;;;7.40;4.80;;;;;;;;;;5058897;28;20437;-88
2022/05/19 04:57:33;;;;;;;6.90;5.90;;;;;;;;;;5059351;28;20440;-87
2022/05/19 04:59:59;;;;;;;8.20;4.83;;;;;;;;;;5059665;28;20443;-88
2022/05/19 05:02:25;;;;;;;7.20;4.83;;;;;;;;;;5042558;28;20496;-87
2022/05/19 05:04:51;;;;;;;7.23;6.00;;;;;;;;;;5061157;28;20420;-86
2022/05/19 05:07:17;;;;;;;5.50;5.00;;;;;;;;;;5063952;28;20397;-86
2022/05/19 05:09:43;;;;;;;8.93;4.60;;;;;;;;;;5059451;28;20422;-85
2022/05/19 05:12:09;;;;;;;8.70;5.10;;;;;;;;;;5062335;28;20445;-86
2022/05/19 05:14:36;;;;;;;8.33;4.87;;;;;;;;;;5054931;28;20405;-87
2022/05/19 05:17:02;;;;;;;9.63;5.73;;;;;;;;;;5074627;28;20425;-86
2022/05/19 05:19:28;;;;;;;5.70;4.77;;;;;;;;;;5074169;28;20447;-87
2022/05/19 05:21:58;;;;;;;6.50;5.37;;;;;;;;;;5072750;28;20401;-85
2022/05/19 05:24:25;;;;;;;10.33;5.73;;;;;;;;;;5064949;28;20409;-87
2022/05/19 05:26:51;;;;;;;7.07;5.50;;;;;;;;;;5043030;28;20496;-86
2022/05/19 05:29:17;;;;;;;6.83;5.13;;;;;;;;;;5059460;28;20832;-86
2022/05/19 05:31:43;;;;;;;6.33;5.50;;;;;;;;;;5059715;28;20449;-85
2022/05/19 05:34:09;;;;;;;6.27;5.20;;;;;;;;;;5041970;28;20421;-86
2022/05/19 05:36:35;;;;;;;7.00;5.37;;;;;;;;;;5059201;28;20737;-85
2022/05/19 05:39:01;;;;;;;6.93;4.83;;;;;;;;;;5041274;28;20850;-86
2022/05/19 05:41:27;;;;;;;6.10;5.10;;;;;;;;;;5063693;28;20420;-86
2022/05/19 05:43:53;;;;;;;8.90;5.47;;;;;;;;;;5061724;28;20401;-87
2022/05/19 05:46:19;;;;;;;5.70;4.90;;;;;;;;;;5061231;28;20901;-87
2022/05/19 05:48:48;;;;;;;8.43;5.33;;;;;;;;;;5042716;28;20444;-87
2022/05/19 05:51:15;;;;;;;8.63;5.30;;;;;;;;;;5042306;28;20453;-85
2022/05/19 05:53:42;;;;;;;5.57;4.83;;;;;;;;;;5060040;28;20412;-85
2022/05/19 05:56:09;;;;;;;6.93;5.10;;;;;;;;;;5059812;28;20928;-86
2022/05/19 05:58:35;;;;;;;6.40;5.30;;;;;;;;;;5059404;28;20497;-86
2022/05/19 06:01:03;;;;;;;6.17;5.57;;;;;;;;;;5046292;28;20400;-86
2022/05/19 06:03:29;;;;;;;6.20;5.07;;;;;;;;;;5045167;28;20506;-87
2022/05/19 06:05:55;;;;;;;7.40;5.63;;;;;;;;;;5045102;28;20409;-86
2022/05/19 06:08:21;;;;;;;8.23;5.50;;;;;;;;;;5062306;28;20425;-87
2022/05/19 06:10:47;;;;;;;6.60;5.10;;;;;;;;;;5062504;28;20441;-86
2022/05/19 06:13:14;;;;;;;6.77;4.93;;;;;;;;;;5074896;28;20406;-86
2022/05/19 06:15:40;;;;;;;7.20;5.50;;;;;;;;;;5059885;28;20449;-87
2022/05/19 06:18:07;;;;;;;6.50;4.67;;;;;;;;;;5074432;28;20479;-87
2022/05/19 06:20:33;;;;;;;9.67;5.80;;;;;;;;;;5074189;28;20390;-85
2022/05/19 06:22:59;;;;;;;7.03;5.03;;;;;;;;;;5054025;28;20409;-87
2022/05/19 06:25:25;;;;;;;6.13;5.20;;;;;;;;;;5075675;28;20404;-84
2022/05/19 06:27:52;;;;;;;8.40;5.50;;;;;;;;;;5068652;28;20401;-87
2022/05/19 06:30:19;;;;;;;9.20;5.63;;;;;;;;;;5043890;28;20576;-87
2022/05/19 06:32:45;;;;;;;7.17;5.10;;;;;;;;;;5062886;28;20456;-87
2022/05/19 06:35:13;;;;;;;10.50;5.50;;;;;;;;;;5064956;28;20418;-87
2022/05/19 06:37:39;;;;;;;10.93;5.03;;;;;;;;;;5069413;28;21212;-86
2022/05/19 06:40:06;;;;;;;6.53;5.53;;;;;;;;;;5076635;28;20425;-85
2022/05/19 06:42:32;;;;;;;8.10;5.50;;;;;;;;;;5044577;28;20520;-86
2022/05/19 06:44:59;;;;;;;10.93;5.10;;;;;;;;;;5064241;28;20421;-85
2022/05/19 06:47:25;;;;;;;9.43;5.20;;;;;;;;;;5066069;28;20421;-86
2022/05/19 06:49:52;;;;;;;6.60;4.97;;;;;;;;;;5047422;28;20456;-88
2022/05/19 06:52:20;;;;;;;6.30;4.60;;;;;;;;;;5046502;28;20445;-86
2022/05/19 06:54:46;;;;;;;7.30;4.80;;;;;;;;;;5050179;28;20424;-87
2022/05/19 06:57:15;;;;;;;9.77;4.83;;;;;;;;;;5041623;28;20808;-87
2022/05/19 06:59:42;;;;;;;10.13;7.80;;;;;;;;;;5053230;28;20836;-87
2022/05/19 07:02:11;;;;;;;7.53;4.80;;;;;;;;;;5043746;28;20434;-88
2022/05/19 07:04:37;;;;;;;6.57;4.30;;;;;;;;;;5044808;28;20432;-88
2022/05/19 07:07:07;;;;;;;6.80;4.87;;;;;;;;;;5042025;28;20413;-88
2022/05/19 07:09:34;;;;;;;8.00;5.50;;;;;;;;;;5043623;28;20990;-87
2022/05/19 07:12:00;;;;;;;10.27;4.27;;;;;;;;;;5062646;28;20469;-86
2022/05/19 07:14:27;;;;;;;4.83;4.13;;;;;;;;;;5044144;28;20499;-87
2022/05/19 07:16:53;;;;;;;5.57;3.90;;;;;;;;;;5046780;28;20429;-87
2022/05/19 07:22:05;;;;;;;9.33;4.70;;;;;;;;;;5065428;28;20497;-88
2022/05/19 07:24:32;;;;;;;5.60;3.80;;;;;;;;;;5065359;28;20438;-88
2022/05/19 07:26:58;;;;;;;6.27;4.70;;;;;;;;;;5064356;28;20449;-87
2022/05/19 07:29:25;;;;;;;5.47;4.43;;;;;;;;;;5060285;28;20456;-86
2022/05/19 07:31:52;;;;;;;6.53;3.93;;;;;;;;;;5056532;28;20465;-85
2022/05/19 07:34:20;;;;;;;9.03;5.10;;;;;;;;;;5043034;28;20495;-86
2022/05/19 07:36:47;;;;;;;9.10;4.77;;;;;;;;;;5040478;28;20438;-87
2022/05/19 07:39:16;;;;;;;4.43;3.67;;;;;;;;;;5047753;28;20464;-86
2022/05/19 07:41:42;;;;;;;4.07;3.67;;;;;;;;;;5055051;28;20445;-86
2022/05/19 07:44:09;;;;;;;6.10;4.30;;;;;;;;;;5038345;28;20425;-85
2022/05/19 07:46:35;;;;;;;4.70;3.67;;;;;;;;;;5039481;28;20433;-85
2022/05/19 07:49:02;;;;;;;5.70;4.00;;;;;;;;;;5058913;28;20449;-84
2022/05/19 07:51:31;;;;;;;4.30;3.40;;;;;;;;;;5055781;28;20465;-85
2022/05/19 07:53:57;;;;;;;6.50;4.17;;;;;;;;;;5048195;28;20438;-84
2022/05/19 07:56:23;;;;;;;5.80;4.20;;;;;;;;;;5047565;28;20517;-85
2022/05/19 07:58:50;;;;;;;7.80;3.63;;;;;;;;;;5050465;28;20442;-84
2022/05/19 08:01:17;;;;;;;8.03;3.63;;;;;;;;;;5074567;28;20425;-84
2022/05/19 08:03:43;;;;;;;6.23;4.63;;;;;;;;;;5074236;28;20422;-83
2022/05/19 08:06:10;;;;;;;6.60;3.87;;;;;;;;;;5065093;28;20438;-85
2022/05/19 08:08:38;;;;;;;5.87;4.20;;;;;;;;;;5058760;28;20535;-86
2022/05/19 08:11:04;;;;;;;5.33;3.30;;;;;;;;;;5057343;28;20793;-86
2022/05/19 08:16:15;;;;;;;7.60;4.80;;;;;;;;;;5055543;28;20847;-86
2022/05/19 08:18:41;;;;;;;5.73;4.13;;;;;;;;;;5057846;28;20530;-87
2022/05/19 08:21:10;;;;;;;5.10;3.60;;;;;;;;;;5037899;28;20430;-85
2022/05/19 08:23:41;;;;;;;7.97;3.53;;;;;;;;;;5041193;28;20433;-87
2022/05/19 08:26:10;;;;;;;6.73;3.40;;;;;;;;;;5039056;28;20460;-86
2022/05/19 08:28:40;;;;;;;8.83;4.30;;;;;;;;;;5055201;28;20964;-83
2022/05/19 08:31:15;;;;;;;4.70;3.70;;;;;;;;;;5038935;28;20457;-85
2022/05/19 08:33:42;;;;;;;5.90;3.70;;;;;;;;;;5040681;28;20429;-88
2022/05/19 08:36:09;;;;;;;3.57;3.27;;;;;;;;;;5059994;28;20453;-85
2022/05/19 08:38:35;;;;;;;4.23;3.50;;;;;;;;;;5059156;28;20425;-86
2022/05/19 08:41:11;;;;;;;5.40;3.30;;;;;;;;;;5059850;28;20438;-86
2022/05/19 08:43:42;;;;;;;5.20;3.90;;;;;;;;;;5038618;28;20448;-85
2022/05/19 08:46:11;;;;;;;6.80;3.23;;;;;;;;;;5055550;28;20417;-85
2022/05/19 08:48:39;;;;;;;5.23;3.97;;;;;;;;;;5040486;28;20430;-86
2022/05/19 08:51:06;;;;;;;4.53;3.67;;;;;;;;;;5037940;28;20462;-85
2022/05/19 08:53:35;;;;;;;6.33;3.77;;;;;;;;;;5046247;28;20425;-86
2022/05/19 08:56:04;;;;;;;5.20;3.20;;;;;;;;;;5057830;28;20489;-85
2022/05/19 08:58:46;;;;;;;4.37;3.03;;;;;;;;;;5041212;28;20551;-85
2022/05/19 09:01:12;;;;;;;7.60;3.70;;;;;;;;;;5057816;28;20486;-85
2022/05/19 09:03:42;;;;;;;6.03;3.20;;;;;;;;;;5040718;28;20535;-85
2022/05/19 09:06:14;;;;;;;5.10;3.57;;;;;;;;;;5059161;28;20428;-86
2022/05/19 09:08:59;;;;;;;5.13;3.20;;;;;;;;;;5040339;28;20459;-86
2022/05/19 09:11:39;;;;;;;4.93;3.77;;;;;;;;;;5040090;28;20544;-86
2022/05/19 09:14:24;;;;;;;6.70;3.63;;;;;;;;;;5058995;28;20453;-85
2022/05/19 09:16:51;;;;;;;5.43;3.37;;;;;;;;;;5031944;28;20437;-86
2022/05/19 09:19:22;;;;;;;5.87;3.27;;;;;;;;;;5024416;28;20468;-85
2022/05/19 09:21:51;;;;;;;5.70;3.63;;;;;;;;;;5041086;28;20516;-86
2022/05/19 09:24:18;;;;;;;4.23;3.30;;;;;;;;;;5038516;28;20430;-87
2022/05/19 09:26:52;;;;;;;4.07;3.43;;;;;;;;;;5059299;28;20452;-86
2022/05/19 09:29:19;;;;;;;7.10;3.70;;;;;;;;;;5034023;28;20460;-86
2022/05/19 09:31:57;;;;;;;4.97;3.47;;;;;;;;;;5039808;28;20561;-84
2022/05/19 09:34:24;;;;;;;4.50;3.60;;;;;;;;;;5033443;28;20479;-84
2022/05/19 09:37:14;;;;;;;5.23;3.40;;;;;;;;;;5066711;28;20448;-84
2022/05/19 09:39:51;;;;;;;6.20;3.83;;;;;;;;;;5035342;28;20446;-86
2022/05/19 09:42:20;;;;;;;9.53;3.73;;;;;;;;;;5054185;28;20446;-84
2022/05/19 09:44:57;;;;;;;7.80;3.93;;;;;;;;;;5052668;28;20429;-84
2022/05/19 09:47:30;;;;;;;9.03;3.43;;;;;;;;;;5049741;28;20424;-85
2022/05/19 09:50:02;;;;;;;6.50;4.00;;;;;;;;;;5047685;28;20449;-84
2022/05/19 09:52:32;;;;;;;5.20;3.40;;;;;;;;;;5040512;28;20475;-85
2022/05/19 09:55:01;;;;;;;4.53;3.80;;;;;;;;;;5047786;28;20505;-85
2022/05/19 09:57:37;;;;;;;6.77;4.10;;;;;;;;;;5045924;28;20418;-85
2022/05/19 10:00:06;;;;;;;7.53;3.80;;;;;;;;;;5051891;28;20533;-85
2022/05/19 10:02:38;;;;;;;7.97;4.07;;;;;;;;;;5048570;28;20461;-85
2022/05/19 10:05:17;;;;;;;5.30;3.70;;;;;;;;;;5057407;28;20778;-85
2022/05/19 10:07:47;;;;;;;8.30;4.30;;;;;;;;;;5044054;28;20420;-85
2022/05/19 10:10:31;;;;;;;13.07;4.50;;;;;;;;;;5045552;28;21006;-85
2022/05/19 10:13:05;;;;;;;6.00;3.73;;;;;;;;;;5042608;28;20837;-85
2022/05/19 10:15:44;;;;;;;5.20;3.70;;;;;;;;;;5038354;28;20440;-84
2022/05/19 10:18:18;;;;;;;5.70;3.50;;;;;;;;;;5056940;28;20543;-84
2022/05/19 10:20:50;;;;;;;4.77;3.60;;;;;;;;;;5043549;28;20787;-84
2022/05/19 10:23:47;;;;;;;6.73;3.80;;;;;;;;;;5051576;28;20419;-84
2022/05/19 10:26:32;;;;;;;5.17;3.87;;;;;;;;;;5020036;28;20434;-85
2022/05/19 10:32:15;;;;;;;6.03;3.80;;;;;;;;;;4989458;28;20481;-85
2022/05/19 10:35:01;;;;;;;4.00;3.60;;;;;;;;;;5070797;28;20428;-84
2022/05/19 10:37:34;;;;;;;4.60;3.30;;;;;;;;;;5052242;28;20507;-84
2022/05/19 10:40:09;;;;;;;5.57;4.37;;;;;;;;;;5063321;28;20441;-86
2022/05/19 10:42:49;;;;;;;7.73;4.00;;;;;;;;;;5062709;28;20413;-86
2022/05/19 10:45:28;;;;;;;5.07;3.40;;;;;;;;;;5051243;28;20426;-85
2022/05/19 10:47:57;;;;;;;5.13;4.23;;;;;;;;;;5063136;28;20401;-84
2022/05/19 10:50:37;;;;;;;10.70;4.43;;;;;;;;;;5054533;28;20452;-84
2022/05/19 10:53:22;;;;;;;4.97;3.90;;;;;;;;;;5052206;28;20429;-86
2022/05/19 10:55:50;;;;;;;4.47;3.97;;;;;;;;;;5047657;28;20418;-85
2022/05/19 10:58:31;;;;;;;7.67;4.20;;;;;;;;;;5055013;28;20460;-84
2022/05/19 11:01:06;;;;;;;8.50;3.70;;;;;;;;;;5045854;28;20421;-84
2022/05/19 11:03:32;;;;;;;8.63;4.37;;;;;;;;;;5060194;28;20447;-85
2022/05/19 11:06:09;;;;;;;5.13;4.20;;;;;;;;;;5060682;28;20670;-85
2022/05/19 11:09:04;;;;;;;9.20;4.50;;;;;;;;;;5033287;28;20987;-84
2022/05/19 11:11:30;;;;;;;4.83;3.97;;;;;;;;;;5005394;28;20479;-84
2022/05/19 11:14:04;;;;;;;4.63;4.07;;;;;;;;;;5059210;28;20478;-84
2022/05/19 11:16:45;;;;;;;5.57;3.80;;;;;;;;;;5055559;28;20425;-84
2022/05/19 11:19:33;;;;;;;6.40;3.50;;;;;;;;;;5046216;28;20441;-86
2022/05/19 11:22:08;;;;;;;4.27;3.50;;;;;;;;;;5036181;28;20409;-85
2022/05/19 11:27:27;;;;;;;5.40;3.80;;;;;;;;;;5058158;28;20400;-87
2022/05/19 11:29:59;;;;;;;7.30;3.40;;;;;;;;;;5051225;28;20442;-86
2022/05/19 11:32:32;;;;;;;5.73;3.47;;;;;;;;;;5060952;28;20461;-84
2022/05/19 11:35:03;;;;;;;5.43;4.20;;;;;;;;;;5048413;28;20481;-85
2022/05/19 11:37:38;;;;;;;9.00;4.60;;;;;;;;;;5058920;28;20429;-86
2022/05/19 11:40:09;;;;;;;5.73;3.90;;;;;;;;;;5059974;28;20453;-88
2022/05/19 11:42:35;;;;;;;4.57;4.07;;;;;;;;;;5068585;28;20434;-87
2022/05/19 11:45:03;;;;;;;5.17;3.70;;;;;;;;;;5042997;28;20429;-87
2022/05/19 11:55:52;;;;;;;4.77;3.80;;;;;;;;;;5041801;28;20604;-85
2022/05/19 11:58:20;;;;;;;5.43;3.90;;;;;;;;;;5050365;28;20453;-87
2022/05/19 12:01:03;;;;;;;6.03;4.10;;;;;;;;;;5035661;28;20418;-86
2022/05/19 12:03:45;;;;;;;5.40;3.30;;;;;;;;;;5041890;28;20437;-86
2022/05/19 12:06:14;;;;;;;5.90;3.50;;;;;;;;;;5022489;28;20407;-86
2022/05/19 12:08:41;;;;;;;5.70;4.00;;;;;;;;;;5056102;28;20979;-85
2022/05/19 12:11:18;;;;;;;8.30;4.10;;;;;;;;;;5041382;28;20465;-87
2022/05/19 12:14:03;;;;;;;4.50;3.40;;;;;;;;;;5039938;28;20433;-87
2022/05/19 12:16:40;;;;;;;5.60;3.30;;;;;;;;;;5037668;28;20479;-85
2022/05/19 12:19:08;;;;;;;6.70;3.80;;;;;;;;;;5040213;28;20770;-85
2022/05/19 12:21:43;;;;;;;6.47;4.00;;;;;;;;;;5042121;28;20436;-85
2022/05/19 12:24:11;;;;;;;9.17;4.20;;;;;;;;;;5058099;28;20417;-86
2022/05/19 12:26:43;;;;;;;4.60;3.77;;;;;;;;;;5028148;28;20444;-87
2022/05/19 12:29:32;;;;;;;4.80;4.00;;;;;;;;;;5059925;28;20525;-86
2022/05/19 12:32:07;;;;;;;9.07;4.27;;;;;;;;;;5049294;28;20560;-86
2022/05/19 12:34:49;;;;;;;14.63;4.30;;;;;;;;;;5040849;28;20900;-87
2022/05/19 12:37:15;;;;;;;5.87;3.50;;;;;;;;;;5039967;28;20933;-86
2022/05/19 12:39:44;;;;;;;5.40;3.67;;;;;;;;;;5049989;28;20444;-86
2022/05/19 12:42:45;;;;;;;6.13;4.20;;;;;;;;;;5039759;28;20486;-85
2022/05/19 12:45:34;;;;;;;9.20;3.60;;;;;;;;;;4945401;29;20452;-87
2022/05/19 12:48:02;;;;;;;5.00;3.10;;;;;;;;;;5040994;28;20409;-85
2022/05/19 12:50:41;;;;;;;8.30;4.07;;;;;;;;;;5037500;28;20848;-86
2022/05/19 12:53:13;;;;;;;7.63;3.63;;;;;;;;;;5041941;28;20437;-86
2022/05/19 12:55:39;;;;;;;4.67;3.60;;;;;;;;;;5039584;28;20872;-87
2022/05/19 12:58:24;;;;;;;8.20;3.77;;;;;;;;;;5041394;28;22598;-86
2022/05/19 13:00:53;;;;;;;7.87;4.27;;;;;;;;;;5044900;28;20445;-86
2022/05/19 13:03:20;;;;;;;4.50;3.40;;;;;;;;;;5057959;28;20432;-86
2022/05/19 13:05:54;;;;;;;5.43;3.50;;;;;;;;;;5045860;28;20425;-86
2022/05/19 13:08:32;;;;;;;4.83;3.13;;;;;;;;;;5041545;28;20432;-86
2022/05/19 13:11:00;;;;;;;7.60;3.30;;;;;;;;;;5046181;28;20413;-86
2022/05/19 13:13:28;;;;;;;5.97;3.40;;;;;;;;;;5043314;28;20414;-85
2022/05/19 13:15:54;;;;;;;10.47;3.67;;;;;;;;;;5058251;28;20508;-84
2022/05/19 13:18:23;;;;;;;8.50;3.10;;;;;;;;;;5045661;28;20465;-84
2022/05/19 13:20:50;;;;;;;4.33;3.10;;;;;;;;;;5027198;28;20480;-84
2022/05/19 13:23:24;;;;;;;4.27;2.93;;;;;;;;;;5039739;28;20418;-86
2022/05/19 13:25:52;;;;;;;5.47;3.77;;;;;;;;;;5065229;28;20806;-84
2022/05/19 13:31:25;;;;;;;6.67;2.97;;;;;;;;;;5074976;28;20396;-85
2022/05/19 13:33:52;;;;;;;3.50;3.10;;;;;;;;;;5073707;28;20416;-85
2022/05/19 13:36:29;;;;;;;4.37;2.97;;;;;;;;;;5054641;28;20393;-85
2022/05/19 13:39:12;;;;;;;5.73;3.10;;;;;;;;;;5054089;28;20496;-86
2022/05/19 13:41:43;;;;;;;5.33;3.20;;;;;;;;;;5051885;28;20857;-86
2022/05/19 13:44:10;;;;;;;3.37;2.97;;;;;;;;;;5047910;28;20487;-86
2022/05/19 13:46:39;;;;;;;8.90;3.57;;;;;;;;;;5046123;28;20405;-86
2022/05/19 13:49:06;;;;;;;9.47;3.90;;;;;;;;;;5063984;28;20422;-85
2022/05/19 13:51:47;;;;;;;6.03;3.10;;;;;;;;;;5062878;28;20411;-86
2022/05/19 13:54:32;;;;;;;8.10;4.03;;;;;;;;;;5063970;28;20409;-86
2022/05/19 13:56:59;;;;;;;9.63;3.20;;;;;;;;;;5064716;28;20393;-86
2022/05/19 13:59:29;;;;;;;5.87;3.20;;;;;;;;;;5064714;28;20925;-86
2022/05/19 14:01:59;;;;;;;6.33;3.10;;;;;;;;;;5065029;28;20463;-87
2022/05/19 14:04:25;;;;;;;6.60;3.10;;;;;;;;;;5064177;28;20405;-87
2022/05/19 14:06:52;;;;;;;4.40;3.10;;;;;;;;;;5064079;28;20432;-87
2022/05/19 14:09:24;;;;;;;5.63;2.97;;;;;;;;;;5063294;28;20429;-86
2022/05/19 14:12:09;;;;;;;5.90;3.13;;;;;;;;;;5063747;28;20424;-86
2022/05/19 14:14:35;;;;;;;3.47;2.60;;;;;;;;;;5063465;28;20433;-87
2022/05/19 14:17:01;;;;;;;8.20;3.20;;;;;;;;;;5061712;28;20408;-86
2022/05/19 14:19:31;;;;;;;4.37;2.70;;;;;;;;;;5061977;28;20482;-85
2022/05/19 14:21:57;;;;;;;5.77;3.27;;;;;;;;;;5062000;28;20445;-86
2022/05/19 14:24:23;;;;;;;5.50;3.07;;;;;;;;;;5064711;28;20750;-86
2022/05/19 14:26:53;;;;;;;5.40;3.27;;;;;;;;;;5063209;28;20378;-86
2022/05/19 14:29:24;;;;;;;3.90;3.00;;;;;;;;;;5063319;28;20936;-86
2022/05/19 14:31:51;;;;;;;4.60;3.00;;;;;;;;;;5060033;28;20413;-87
2022/05/19 14:34:25;;;;;;;5.73;3.17;;;;;;;;;;5062695;28;20469;-85
2022/05/19 14:36:57;;;;;;;6.17;2.90;;;;;;;;;;5063630;28;20389;-86
2022/05/19 14:39:37;;;;;;;13.20;3.30;;;;;;;;;;5063722;28;20429;-85
2022/05/19 14:44:50;;;;;;;4.77;2.40;;;;;;;;;;5063112;28;20411;-86
2022/05/19 14:47:23;;;;;;;5.27;3.10;;;;;;;;;;5061376;28;20406;-86
2022/05/19 14:50:00;;;;;;;4.03;2.33;;;;;;;;;;5062688;28;20406;-85
2022/05/19 14:52:32;;;;;;;4.10;2.40;;;;;;;;;;5063481;28;20420;-86
2022/05/19 14:54:59;;;;;;;4.30;2.40;;;;;;;;;;5065491;28;20401;-86
2022/05/19 14:57:28;;;;;;;3.57;2.10;;;;;;;;;;5061676;28;20404;-83
2022/05/19 14:59:56;;;;;;;3.90;2.70;;;;;;;;;;5059687;28;20428;-84
2022/05/19 15:02:23;;;;;;;3.53;2.53;;;;;;;;;;5058381;28;20449;-83
2022/05/19 15:04:50;;;;;;;5.20;2.97;;;;;;;;;;5057885;28;20441;-85
2022/05/19 15:07:23;;;;;;;5.70;2.67;;;;;;;;;;5058314;28;20420;-85
2022/05/19 15:09:49;;;;;;;4.77;3.17;;;;;;;;;;5048736;28;20441;-84
2022/05/19 15:12:15;;;;;;;3.30;2.57;;;;;;;;;;5062415;28;20448;-83
2022/05/19 15:14:44;;;;;;;4.97;3.20;;;;;;;;;;5058314;28;20429;-85
2022/05/19 15:17:11;;;;;;;4.30;2.77;;;;;;;;;;5043161;28;20888;-86
2022/05/19 15:19:37;;;;;;;4.23;2.83;;;;;;;;;;5043471;28;20519;-83
2022/05/19 15:22:05;;;;;;;3.70;2.80;;;;;;;;;;5042869;28;20550;-84
2022/05/19 15:24:31;;;;;;;4.53;2.90;;;;;;;;;;5043806;28;20417;-86